Time;durP1;ratioP1;P1;durP2;ratioP2;P2;SDS_P1;SDS_P2;PMS_P1;PMS_P2;Temp;Humidity;BMP_temperature;BMP_pressure;BME280_temperature;BME280_humidity;BME280_pressure;Samples;Min_cycle;Max_cycle;Signal;HPM_P1;HPM_P2
2021/09/30 00:01:38;;;;;;;2.40;1.40;;;9.50;91.70;;;;;;4999363;28;20255;-59
2021/09/30 00:04:04;;;;;;;2.07;1.50;;;9.50;92.20;;;;;;4995270;28;20496;-58
2021/09/30 00:06:30;;;;;;;2.77;1.43;;;9.40;92.40;;;;;;5005758;28;20177;-60
2021/09/30 00:08:56;;;;;;;2.80;1.10;;;9.40;92.60;;;;;;5005169;28;20760;-60
2021/09/30 00:11:27;;;;;;;2.60;1.20;;;9.40;92.60;;;;;;5004142;28;20404;-60
2021/09/30 00:14:23;;;;;;;4.50;1.70;;;9.40;92.80;;;;;;5005507;28;20277;-59
2021/09/30 00:45:24;;;;;;;2.30;1.50;;;8.80;96.70;;;;;;4978340;28;20447;-60
2021/09/30 00:46:24;;;;;;;2.37;1.27;;;8.70;96.90;;;;;;4982604;28;21107;-59
2021/09/30 00:48:41;;;;;;;1.83;1.37;;;8.70;97.10;;;;;;4993163;28;20463;-59
2021/09/30 01:45:39;;;;;;;2.83;1.60;;;8.50;99.90;;;;;;4996013;28;20493;-59
2021/09/30 02:59:51;;;;;;;3.30;1.60;;;8.30;99.90;;;;;;5011549;28;20403;-60
2021/09/30 03:02:19;;;;;;;3.37;1.50;;;8.30;99.90;;;;;;5004720;28;20419;-59
2021/09/30 03:04:46;;;;;;;2.50;1.47;;;8.30;99.90;;;;;;5011945;28;20427;-59
2021/09/30 03:07:12;;;;;;;2.20;1.30;;;8.20;99.90;;;;;;5020909;28;20477;-59
2021/09/30 03:09:42;;;;;;;2.27;1.30;;;8.20;99.90;;;;;;5024396;28;20415;-58
2021/09/30 03:12:22;;;;;;;2.67;2.13;;;8.20;99.90;;;;;;4993662;28;20423;-58
2021/09/30 03:15:00;;;;;;;3.00;1.43;;;8.20;99.90;;;;;;4990194;28;20551;-59
2021/09/30 03:17:41;;;;;;;1.63;1.23;;;8.20;99.90;;;;;;5011071;28;20438;-59
2021/09/30 03:20:27;;;;;;;1.50;1.40;;;8.20;99.90;;;;;;5010776;28;20485;-59
2021/09/30 03:22:55;;;;;;;4.20;1.80;;;8.10;99.90;;;;;;5009513;28;20486;-59
2021/09/30 03:25:20;;;;;;;8.77;2.50;;;8.10;99.90;;;;;;5013414;28;21159;-59
2021/09/30 03:27:46;;;;;;;3.33;1.87;;;8.10;99.90;;;;;;5008852;28;20462;-59
2021/09/30 03:30:12;;;;;;;4.00;1.90;;;8.10;99.90;;;;;;5003211;28;20180;-59
2021/09/30 03:32:39;;;;;;;1.80;1.43;;;8.10;99.90;;;;;;5010528;28;20665;-59
2021/09/30 03:35:05;;;;;;;3.17;1.43;;;8.10;99.90;;;;;;5011251;28;20184;-58
2021/09/30 03:37:31;;;;;;;2.50;1.47;;;8.00;99.90;;;;;;5009117;28;20486;-58
2021/09/30 03:39:56;;;;;;;2.03;1.60;;;8.00;99.90;;;;;;5009077;28;20443;-59
2021/09/30 03:42:22;;;;;;;3.33;1.37;;;8.00;99.90;;;;;;5018768;28;20189;-59
2021/09/30 03:44:47;;;;;;;2.90;2.00;;;7.90;99.90;;;;;;5010623;28;20201;-59
2021/09/30 03:47:14;;;;;;;4.10;1.80;;;7.90;99.90;;;;;;5007617;28;20180;-59
2021/09/30 03:49:40;;;;;;;6.73;1.97;;;7.90;99.90;;;;;;4998652;28;20261;-61
2021/09/30 03:52:15;;;;;;;2.70;1.60;;;7.90;99.90;;;;;;4981725;28;20412;-59
2021/09/30 04:00:24;;;;;;;2.10;1.60;;;7.80;99.90;;;;;;4943649;28;20433;-58
2021/09/30 04:02:50;;;;;;;2.17;1.70;;;7.80;99.90;;;;;;5009034;28;20450;-57
2021/09/30 04:05:16;;;;;;;3.03;1.63;;;7.80;99.90;;;;;;5004426;28;20200;-58
2021/09/30 04:07:41;;;;;;;4.30;1.60;;;7.80;99.90;;;;;;5007022;28;20435;-54
2021/09/30 04:10:07;;;;;;;3.43;1.87;;;7.70;99.90;;;;;;5004813;28;20191;-55
2021/09/30 04:12:33;;;;;;;1.80;1.60;;;7.70;99.90;;;;;;5002002;28;20169;-54
2021/09/30 04:14:59;;;;;;;4.50;1.93;;;7.60;99.90;;;;;;5011451;28;20534;-60
2021/09/30 04:17:27;;;;;;;6.40;1.80;;;7.60;99.90;;;;;;5002045;28;20189;-60
2021/09/30 04:19:53;;;;;;;2.33;1.90;;;7.50;99.90;;;;;;4990327;28;20276;-59
2021/09/30 04:22:18;;;;;;;2.50;1.77;;;7.40;99.90;;;;;;4988996;28;20508;-60
2021/09/30 04:24:47;;;;;;;3.83;1.80;;;7.40;99.90;;;;;;4981879;28;20188;-60
2021/09/30 04:27:13;;;;;;;3.13;1.80;;;7.30;99.90;;;;;;4998592;28;20194;-60
2021/09/30 04:29:39;;;;;;;8.43;2.10;;;7.20;99.90;;;;;;5006170;28;20502;-60
2021/09/30 04:32:05;;;;;;;4.13;1.70;;;7.20;99.90;;;;;;5000104;28;20188;-60
2021/09/30 04:34:31;;;;;;;4.00;1.73;;;7.20;99.90;;;;;;4986501;28;20478;-57
2021/09/30 04:36:56;;;;;;;2.83;1.67;;;7.10;99.90;;;;;;5002984;28;20533;-58
2021/09/30 04:39:22;;;;;;;2.60;1.63;;;7.10;99.90;;;;;;5002795;28;20581;-57
2021/09/30 04:41:48;;;;;;;2.27;1.90;;;7.10;99.90;;;;;;4998832;28;20188;-61
2021/09/30 04:44:14;;;;;;;5.33;1.90;;;7.00;99.90;;;;;;5005248;28;20230;-59
2021/09/30 04:46:40;;;;;;;2.33;1.90;;;7.00;99.90;;;;;;4984232;28;20479;-60
2021/09/30 04:49:07;;;;;;;5.07;1.47;;;6.90;99.90;;;;;;5007964;28;20475;-60
2021/09/30 04:51:33;;;;;;;4.63;1.70;;;6.80;99.90;;;;;;5006110;28;20917;-59
2021/09/30 04:53:58;;;;;;;3.23;1.57;;;6.80;99.90;;;;;;5001707;28;21025;-61
2021/09/30 04:56:28;;;;;;;2.00;1.47;;;6.70;99.90;;;;;;4983279;28;20451;-60
2021/09/30 04:58:54;;;;;;;4.33;2.27;;;6.60;99.90;;;;;;4998027;28;20188;-57
2021/09/30 05:01:20;;;;;;;9.80;2.80;;;6.50;99.90;;;;;;5001229;28;20426;-59
2021/09/30 05:03:45;;;;;;;7.10;2.43;;;6.40;99.90;;;;;;5010686;28;20259;-58
2021/09/30 05:06:11;;;;;;;5.17;2.50;;;6.40;99.90;;;;;;5012942;28;20561;-59
2021/09/30 05:08:39;;;;;;;3.10;2.30;;;6.30;99.90;;;;;;4986617;28;20212;-58
2021/09/30 05:11:04;;;;;;;4.10;2.27;;;6.30;99.90;;;;;;5005433;28;20176;-57
2021/09/30 05:13:37;;;;;;;4.60;2.30;;;6.20;99.90;;;;;;5000484;28;20432;-58
2021/09/30 05:16:05;;;;;;;7.37;2.27;;;6.20;99.90;;;;;;4987945;28;20193;-59
2021/09/30 05:18:31;;;;;;;4.60;2.07;;;6.20;99.90;;;;;;5002265;28;20431;-58
2021/09/30 05:20:56;;;;;;;7.30;2.43;;;6.20;99.90;;;;;;5002886;28;20457;-60
2021/09/30 05:23:23;;;;;;;3.53;2.07;;;6.20;99.90;;;;;;5003537;28;20185;-57
2021/09/30 05:25:49;;;;;;;1.83;1.70;;;6.20;99.90;;;;;;5002071;28;20207;-58
2021/09/30 05:28:15;;;;;;;2.80;1.60;;;6.20;99.90;;;;;;5007856;28;20450;-58
2021/09/30 05:30:41;;;;;;;3.53;2.10;;;6.20;99.90;;;;;;5007916;28;20469;-58
2021/09/30 05:33:06;;;;;;;8.20;1.90;;;6.10;99.90;;;;;;5007324;28;20641;-58
2021/09/30 05:35:32;;;;;;;7.80;2.10;;;6.10;99.90;;;;;;4986047;28;20203;-56
2021/09/30 05:37:58;;;;;;;9.70;2.33;;;6.10;99.90;;;;;;5007671;28;20198;-60
2021/09/30 05:40:24;;;;;;;3.90;2.20;;;6.10;99.90;;;;;;5005931;28;20215;-59
2021/09/30 05:42:52;;;;;;;1.97;1.77;;;6.10;99.90;;;;;;5006262;28;20657;-59
2021/09/30 05:45:17;;;;;;;4.67;3.30;;;6.10;99.90;;;;;;5007322;28;20470;-61
2021/09/30 05:47:44;;;;;;;4.43;2.57;;;6.10;99.90;;;;;;5008849;28;20447;-59
2021/09/30 05:50:11;;;;;;;2.80;2.20;;;6.10;99.90;;;;;;5004136;28;20200;-59
2021/09/30 05:52:37;;;;;;;4.87;1.90;;;6.10;99.90;;;;;;4998687;28;20428;-60
2021/09/30 05:55:03;;;;;;;3.17;2.30;;;6.00;99.90;;;;;;5008238;28;20439;-59
2021/09/30 05:57:31;;;;;;;5.50;2.10;;;6.00;99.90;;;;;;5001053;28;20240;-59
2021/09/30 06:00:47;;;;;;;1.83;1.60;;;6.00;99.90;;;;;;5006924;28;20990;-59
2021/09/30 06:09:36;;;;;;;2.60;2.00;;;6.00;99.90;;;;;;5009004;28;20549;-60
2021/09/30 06:11:02;;;;;;;4.83;2.10;;;6.00;99.90;;;;;;4998858;28;20415;-60
2021/09/30 06:13:40;;;;;;;4.10;1.80;;;6.00;99.90;;;;;;5009886;28;20432;-58
2021/09/30 06:16:11;;;;;;;4.33;2.50;;;6.00;99.90;;;;;;4986354;28;20459;-60
2021/09/30 06:18:37;;;;;;;6.70;2.20;;;6.00;99.90;;;;;;4992425;28;20439;-60
2021/09/30 06:21:02;;;;;;;2.73;1.50;;;6.10;99.90;;;;;;5008775;28;20430;-60
2021/09/30 06:23:28;;;;;;;8.00;2.10;;;6.10;99.90;;;;;;5010259;28;20638;-60
2021/09/30 06:25:54;;;;;;;4.40;2.30;;;6.20;99.90;;;;;;5011140;28;20211;-59
2021/09/30 06:28:19;;;;;;;7.10;2.00;;;6.20;99.90;;;;;;5010704;28;20185;-58
2021/09/30 06:30:45;;;;;;;5.77;1.90;;;6.20;99.90;;;;;;5001676;28;20574;-60
2021/09/30 06:33:13;;;;;;;5.97;2.67;;;6.20;99.90;;;;;;5018446;28;20176;-59
2021/09/30 06:35:38;;;;;;;3.00;2.13;;;6.30;99.90;;;;;;4994430;28;20197;-59
2021/09/30 06:38:07;;;;;;;11.83;2.10;;;6.30;99.90;;;;;;4994379;28;20432;-60
2021/09/30 06:40:32;;;;;;;8.50;2.53;;;6.40;99.90;;;;;;4999568;28;20711;-59
2021/09/30 06:42:58;;;;;;;5.27;2.63;;;6.40;99.90;;;;;;5010309;28;20435;-59
2021/09/30 06:45:24;;;;;;;6.63;2.47;;;6.50;99.90;;;;;;4994034;28;20282;-60
2021/09/30 06:47:50;;;;;;;12.20;3.03;;;6.50;99.90;;;;;;5014678;28;20453;-61
2021/09/30 06:50:16;;;;;;;7.70;2.33;;;6.60;99.90;;;;;;4978670;28;20423;-60
2021/09/30 06:52:45;;;;;;;4.13;2.40;;;6.60;99.90;;;;;;5012334;28;20169;-60
2021/09/30 08:29:21;;;;;;;9.27;3.40;;;9.70;99.40;;;;;;5040962;28;20491;-60
2021/09/30 08:31:47;;;;;;;7.93;3.10;;;9.80;98.70;;;;;;5047560;28;20453;-58
2021/09/30 08:34:13;;;;;;;6.10;3.37;;;10.00;97.00;;;;;;5041019;28;20453;-59
2021/09/30 08:36:39;;;;;;;6.77;3.13;;;10.00;94.40;;;;;;5051691;28;20179;-59
2021/09/30 08:39:09;;;;;;;8.30;3.70;;;10.10;94.00;;;;;;5050230;28;20793;-59
2021/09/30 08:41:35;;;;;;;6.10;2.70;;;10.20;94.80;;;;;;5040797;28;20430;-59
2021/09/30 08:44:02;;;;;;;5.97;2.83;;;10.30;93.10;;;;;;5048952;28;20553;-59
2021/09/30 08:46:28;;;;;;;4.13;2.93;;;10.50;92.90;;;;;;5044692;28;20437;-59
2021/09/30 08:48:54;;;;;;;2.00;1.53;;;10.60;91.00;;;;;;5047376;28;20455;-59
2021/09/30 08:51:20;;;;;;;8.60;2.13;;;10.70;83.70;;;;;;5047106;28;20513;-59
2021/09/30 08:53:46;;;;;;;4.53;2.40;;;10.80;75.90;;;;;;5049380;28;20211;-58
2021/09/30 08:56:12;;;;;;;3.43;1.73;;;10.90;77.80;;;;;;5045402;28;20429;-59
2021/09/30 08:58:38;;;;;;;2.77;1.50;;;11.00;74.50;;;;;;5033109;28;20636;-59
2021/09/30 09:01:07;;;;;;;3.33;1.40;;;11.10;71.80;;;;;;5048963;28;20456;-59
2021/09/30 09:03:35;;;;;;;4.30;1.40;;;11.30;70.00;;;;;;5044214;28;20957;-59
2021/09/30 09:06:01;;;;;;;10.30;1.63;;;11.50;69.60;;;;;;5048155;28;20421;-59
2021/09/30 09:08:27;;;;;;;3.17;0.90;;;11.60;66.40;;;;;;5032965;28;20523;-60
2021/09/30 09:10:55;;;;;;;1.03;0.93;;;11.80;61.10;;;;;;5035286;28;20438;-59
2021/09/30 09:13:24;;;;;;;2.43;1.10;;;11.80;56.50;;;;;;5046344;28;20449;-58
2021/09/30 09:15:54;;;;;;;2.33;1.00;;;11.90;55.00;;;;;;5042088;28;20483;-59
2021/09/30 09:18:25;;;;;;;0.90;0.90;;;12.00;54.70;;;;;;5039802;28;20434;-59
2021/09/30 09:21:15;;;;;;;1.97;1.20;;;12.10;53.70;;;;;;5037263;28;20461;-56
2021/09/30 09:23:54;;;;;;;7.30;1.03;;;12.30;54.40;;;;;;5043669;28;20453;-58
2021/09/30 09:26:23;;;;;;;3.20;1.50;;;12.40;53.90;;;;;;5042451;28;20805;-59
2021/09/30 09:29:03;;;;;;;2.60;1.30;;;12.60;53.90;;;;;;5048372;28;20829;-60
2021/09/30 09:31:30;;;;;;;2.40;1.27;;;12.70;54.40;;;;;;5044197;28;20449;-59
2021/09/30 09:33:55;;;;;;;5.30;0.90;;;12.90;55.70;;;;;;5035966;28;20929;-59
2021/09/30 09:36:25;;;;;;;2.13;1.30;;;13.10;54.50;;;;;;5044141;28;20434;-60
2021/09/30 09:38:53;;;;;;;7.27;1.40;;;13.20;52.90;;;;;;5028830;28;20639;-59
2021/09/30 09:41:25;;;;;;;2.60;1.27;;;13.40;54.00;;;;;;5040823;28;20436;-59
2021/09/30 09:43:53;;;;;;;5.87;1.60;;;13.50;55.10;;;;;;5044005;28;20465;-58
2021/09/30 09:46:23;;;;;;;1.97;0.90;;;13.70;53.80;;;;;;5044740;28;20437;-58
2021/09/30 09:48:58;;;;;;;2.90;1.10;;;13.80;52.80;;;;;;5046965;28;20457;-58
2021/09/30 09:51:25;;;;;;;0.80;0.80;;;13.80;49.10;;;;;;5046329;28;20425;-58
2021/09/30 09:53:56;;;;;;;4.77;1.00;;;13.70;48.50;;;;;;5024903;28;20473;-59
2021/09/30 09:56:22;;;;;;;2.10;1.27;;;13.70;49.70;;;;;;5033403;28;20479;-57
2021/09/30 09:58:51;;;;;;;2.50;1.00;;;13.80;49.60;;;;;;5049247;28;20430;-58
2021/09/30 10:01:22;;;;;;;1.00;1.00;;;13.90;48.00;;;;;;5043421;28;20411;-58
2021/09/30 10:03:57;;;;;;;1.03;0.90;;;14.00;48.60;;;;;;5041363;28;21022;-59
2021/09/30 10:06:23;;;;;;;2.40;0.90;;;14.10;49.20;;;;;;5041275;28;20959;-59
2021/09/30 10:08:49;;;;;;;1.10;1.00;;;14.30;48.60;;;;;;5042965;28;20827;-59
2021/09/30 10:11:15;;;;;;;2.73;0.90;;;14.40;48.40;;;;;;5045623;28;21213;-59
2021/09/30 10:13:41;;;;;;;4.37;1.13;;;14.50;47.50;;;;;;5044499;28;20195;-58
2021/09/30 10:16:07;;;;;;;2.10;1.07;;;14.50;47.40;;;;;;5048192;28;20430;-59
2021/09/30 10:18:33;;;;;;;4.27;1.00;;;14.60;48.00;;;;;;5045005;28;20213;-59
2021/09/30 10:20:59;;;;;;;1.10;1.00;;;14.70;48.10;;;;;;5038311;28;20228;-59
2021/09/30 10:23:30;;;;;;;2.73;1.40;;;14.70;47.70;;;;;;5045041;28;20606;-59
2021/09/30 10:26:12;;;;;;;2.50;0.97;;;14.70;49.20;;;;;;5041392;28;20466;-57
2021/09/30 10:28:43;;;;;;;0.90;0.90;;;14.60;47.90;;;;;;5044349;28;21030;-57
2021/09/30 10:31:24;;;;;;;1.30;1.10;;;14.70;49.00;;;;;;5043944;28;20532;-57
2021/09/30 10:33:50;;;;;;;2.60;1.40;;;14.90;49.60;;;;;;5046325;28;20498;-57
2021/09/30 10:36:45;;;;;;;1.70;1.00;;;14.90;49.30;;;;;;5041489;28;20429;-58
2021/09/30 10:39:17;;;;;;;2.83;1.00;;;14.70;49.60;;;;;;5031470;28;20475;-60
2021/09/30 10:41:43;;;;;;;3.90;1.10;;;14.40;49.50;;;;;;5037014;28;20433;-60
2021/09/30 10:44:17;;;;;;;1.53;1.10;;;14.30;50.30;;;;;;5027390;28;20481;-60
2021/09/30 10:46:45;;;;;;;2.63;1.00;;;14.40;50.60;;;;;;5047139;28;20567;-59
2021/09/30 10:49:33;;;;;;;1.77;1.00;;;14.80;50.20;;;;;;5022417;28;20473;-60
2021/09/30 10:52:15;;;;;;;1.73;1.23;;;15.20;50.20;;;;;;5038596;28;20417;-60
2021/09/30 10:54:42;;;;;;;3.53;1.13;;;15.50;48.70;;;;;;5052143;28;20420;-60
2021/09/30 10:57:35;;;;;;;2.57;1.20;;;15.70;48.30;;;;;;5048442;28;20422;-60
2021/09/30 11:00:09;;;;;;;2.67;1.20;;;15.50;46.50;;;;;;5044486;28;20438;-60
2021/09/30 11:02:59;;;;;;;1.23;0.90;;;15.40;48.40;;;;;;5051373;28;20445;-59
2021/09/30 11:05:29;;;;;;;2.10;0.93;;;15.40;49.20;;;;;;5039477;28;21013;-60
2021/09/30 11:08:16;;;;;;;1.27;1.00;;;15.50;48.50;;;;;;5032294;28;20449;-57
2021/09/30 11:11:09;;;;;;;3.00;1.40;;;15.70;48.00;;;;;;5038035;28;20515;-57
2021/09/30 11:14:07;;;;;;;1.47;1.00;;;15.80;48.20;;;;;;5044459;28;21024;-57
2021/09/30 11:16:40;;;;;;;1.87;1.20;;;15.80;48.30;;;;;;5020774;28;20422;-60
2021/09/30 11:19:26;;;;;;;1.70;1.23;;;16.20;49.10;;;;;;5048607;28;20430;-60
2021/09/30 11:21:52;;;;;;;1.20;1.03;;;16.50;45.50;;;;;;5044708;28;20426;-61
2021/09/30 11:24:54;;;;;;;2.50;1.10;;;16.30;46.30;;;;;;5046666;28;20623;-60
2021/09/30 11:27:21;;;;;;;2.73;1.10;;;15.90;47.10;;;;;;5024208;28;20421;-59
2021/09/30 11:29:48;;;;;;;1.23;0.97;;;15.50;48.00;;;;;;5031913;28;20461;-61
2021/09/30 11:32:14;;;;;;;8.10;1.17;;;15.20;48.50;;;;;;5043049;28;20448;-57
2021/09/30 11:34:48;;;;;;;1.53;1.10;;;14.90;48.40;;;;;;5044087;28;20802;-58
2021/09/30 11:37:17;;;;;;;3.50;1.00;;;14.70;48.30;;;;;;5044094;28;20163;-60
2021/09/30 11:39:49;;;;;;;2.37;1.23;;;14.90;49.60;;;;;;5038180;28;20430;-61
2021/09/30 11:42:20;;;;;;;1.20;0.90;;;15.20;50.10;;;;;;5043621;28;20418;-61
2021/09/30 11:45:06;;;;;;;1.57;1.00;;;15.20;48.80;;;;;;5039536;28;20421;-60
2021/09/30 11:47:32;;;;;;;2.17;1.10;;;15.80;50.70;;;;;;5040579;28;20929;-61
2021/09/30 11:49:59;;;;;;;2.80;1.30;;;16.50;50.70;;;;;;5035360;28;20430;-62
2021/09/30 11:52:25;;;;;;;9.27;1.53;;;17.10;49.40;;;;;;5041071;28;20186;-60
2021/09/30 11:54:52;;;;;;;2.23;1.20;;;17.70;47.40;;;;;;5030557;28;20421;-58
2021/09/30 11:57:25;;;;;;;2.63;0.93;;;17.80;45.90;;;;;;5043607;28;20179;-61
2021/09/30 11:59:51;;;;;;;2.03;1.10;;;18.00;45.60;;;;;;5039205;28;20486;-61
2021/09/30 12:02:18;;;;;;;1.93;1.00;;;18.20;45.30;;;;;;5044469;28;20405;-60
2021/09/30 12:04:50;;;;;;;2.17;1.10;;;18.30;44.80;;;;;;5038815;28;20164;-61
2021/09/30 12:07:22;;;;;;;1.77;0.90;;;18.60;44.30;;;;;;5042519;28;20793;-61
2021/09/30 12:09:53;;;;;;;3.33;1.00;;;18.60;43.10;;;;;;5041067;28;20900;-61
2021/09/30 12:12:27;;;;;;;6.97;1.27;;;18.70;41.00;;;;;;5045606;28;20448;-57
2021/09/30 12:14:55;;;;;;;2.80;0.97;;;18.80;41.00;;;;;;5027867;28;20890;-60
2021/09/30 12:17:21;;;;;;;4.70;1.03;;;18.80;39.30;;;;;;5045132;28;20414;-59
2021/09/30 12:19:50;;;;;;;3.50;1.10;;;18.60;39.40;;;;;;5020226;28;20487;-60
2021/09/30 12:22:19;;;;;;;2.63;1.20;;;18.70;41.70;;;;;;5044784;28;20264;-59
2021/09/30 12:24:51;;;;;;;3.33;1.00;;;19.00;43.70;;;;;;5042773;28;20461;-59
2021/09/30 12:27:18;;;;;;;3.23;0.80;;;19.30;43.20;;;;;;5030019;28;20528;-60
2021/09/30 12:29:46;;;;;;;1.67;1.00;;;19.70;42.40;;;;;;5022065;28;20475;-61
2021/09/30 12:32:18;;;;;;;1.00;0.90;;;19.90;39.40;;;;;;5027003;28;20411;-61
2021/09/30 12:34:59;;;;;;;1.67;1.00;;;19.80;38.30;;;;;;5020858;28;20880;-61
2021/09/30 12:37:53;;;;;;;1.67;1.33;;;20.00;40.00;;;;;;5040639;28;20945;-60
2021/09/30 12:40:35;;;;;;;3.90;1.03;;;20.00;40.40;;;;;;5032650;28;20433;-60
2021/09/30 12:43:05;;;;;;;2.57;1.00;;;20.10;40.00;;;;;;5029268;28;20452;-60
2021/09/30 12:45:34;;;;;;;6.83;1.07;;;20.30;40.50;;;;;;5054456;28;20417;-60
2021/09/30 12:48:14;;;;;;;2.70;0.83;;;20.40;40.00;;;;;;5039373;28;20454;-60
2021/09/30 12:50:52;;;;;;;2.30;1.03;;;20.50;38.90;;;;;;5015869;28;20922;-61
2021/09/30 12:53:22;;;;;;;2.03;1.00;;;20.50;37.80;;;;;;5041575;28;20511;-60
2021/09/30 12:55:49;;;;;;;2.50;1.10;;;20.50;37.80;;;;;;5040762;28;20967;-59
2021/09/30 12:58:31;;;;;;;3.10;0.87;;;20.40;37.00;;;;;;5037964;28;20422;-60
2021/09/30 13:00:59;;;;;;;0.97;0.80;;;20.40;37.50;;;;;;5044118;28;20949;-59
2021/09/30 13:03:25;;;;;;;5.60;1.07;;;20.10;38.10;;;;;;5046474;28;21118;-60
2021/09/30 13:05:54;;;;;;;2.73;1.00;;;19.50;38.20;;;;;;5042035;28;20671;-59
2021/09/30 13:08:41;;;;;;;1.77;1.10;;;18.80;38.60;;;;;;5044147;28;20458;-59
2021/09/30 13:11:25;;;;;;;5.67;1.17;;;18.20;39.20;;;;;;5041542;28;21006;-59
2021/09/30 13:14:18;;;;;;;5.33;1.13;;;17.80;41.30;;;;;;5036903;28;20804;-59
2021/09/30 13:16:47;;;;;;;1.73;1.17;;;18.00;42.00;;;;;;5045067;28;20447;-59
2021/09/30 13:19:13;;;;;;;2.00;1.07;;;18.20;42.10;;;;;;5036813;28;20465;-60
2021/09/30 13:22:03;;;;;;;1.20;0.90;;;18.20;41.80;;;;;;5043243;28;20817;-59
2021/09/30 13:24:34;;;;;;;2.60;1.23;;;18.00;41.60;;;;;;5042392;28;20795;-61
2021/09/30 13:27:00;;;;;;;3.00;1.40;;;17.70;41.70;;;;;;5026686;28;20436;-61
2021/09/30 13:29:26;;;;;;;1.90;0.90;;;17.80;42.80;;;;;;5042718;28;20453;-61
2021/09/30 13:31:52;;;;;;;1.40;0.90;;;18.10;43.30;;;;;;5047104;28;20464;-61
2021/09/30 13:34:18;;;;;;;1.10;0.90;;;18.50;42.60;;;;;;5047328;28;20609;-61
2021/09/30 13:36:44;;;;;;;2.67;1.00;;;18.70;41.20;;;;;;5023257;28;20440;-61
2021/09/30 13:39:10;;;;;;;2.27;1.23;;;18.70;41.30;;;;;;5047119;28;20937;-61
2021/09/30 13:41:36;;;;;;;1.97;1.37;;;18.70;41.30;;;;;;5048077;28;20266;-61
2021/09/30 13:44:01;;;;;;;3.50;0.93;;;19.10;41.80;;;;;;5048204;28;20233;-61
2021/09/30 13:46:27;;;;;;;5.33;0.90;;;19.60;41.00;;;;;;5043931;28;20358;-61
2021/09/30 13:48:53;;;;;;;3.80;1.00;;;20.10;40.60;;;;;;5048158;28;20256;-61
2021/09/30 13:51:18;;;;;;;1.53;0.87;;;20.30;37.90;;;;;;5041060;28;20171;-62
2021/09/30 13:53:44;;;;;;;1.63;1.10;;;20.70;39.50;;;;;;5040906;28;20257;-59
2021/09/30 13:56:10;;;;;;;3.03;0.80;;;21.00;37.90;;;;;;5047415;28;20167;-60
2021/09/30 13:58:35;;;;;;;2.30;1.00;;;21.10;36.90;;;;;;5042529;28;20180;-59
2021/09/30 14:01:02;;;;;;;1.70;1.20;;;21.30;36.80;;;;;;5045867;28;20544;-60
2021/09/30 14:03:28;;;;;;;1.47;0.93;;;21.40;36.90;;;;;;5041471;28;20273;-59
2021/09/30 14:05:53;;;;;;;3.63;1.00;;;21.60;36.40;;;;;;5046638;28;20500;-60
2021/09/30 14:08:20;;;;;;;3.77;1.17;;;21.70;35.70;;;;;;5028615;28;20202;-59
2021/09/30 14:10:46;;;;;;;1.80;0.90;;;21.80;35.50;;;;;;5047416;28;20190;-59
2021/09/30 14:13:16;;;;;;;2.30;1.03;;;21.90;36.60;;;;;;5020379;28;20458;-59
2021/09/30 14:15:42;;;;;;;1.77;1.00;;;22.00;36.00;;;;;;5037435;28;20855;-56
2021/09/30 14:18:09;;;;;;;0.80;0.80;;;22.00;35.70;;;;;;5041645;28;20441;-61
2021/09/30 14:20:35;;;;;;;2.50;1.30;;;22.10;35.80;;;;;;5042444;28;20882;-61
2021/09/30 14:23:00;;;;;;;7.53;1.10;;;22.10;35.00;;;;;;5048825;28;20441;-60
2021/09/30 14:25:26;;;;;;;1.93;0.80;;;22.10;35.30;;;;;;5050074;28;20559;-59
2021/09/30 14:27:52;;;;;;;3.50;0.80;;;22.10;35.20;;;;;;5051273;28;20674;-58
2021/09/30 14:30:18;;;;;;;2.57;1.00;;;22.10;35.60;;;;;;5048482;28;20603;-59
2021/09/30 14:32:44;;;;;;;1.03;0.80;;;22.20;34.90;;;;;;5044935;28;20214;-58
2021/09/30 14:35:10;;;;;;;1.90;0.97;;;22.10;34.80;;;;;;5031938;28;20228;-59
2021/09/30 14:37:36;;;;;;;5.00;1.13;;;22.20;35.70;;;;;;5048944;28;20421;-59
2021/09/30 14:40:03;;;;;;;1.93;0.97;;;22.20;35.70;;;;;;5049227;28;20202;-59
2021/09/30 14:42:29;;;;;;;3.03;1.30;;;22.30;35.80;;;;;;5048650;28;20250;-59
2021/09/30 14:44:57;;;;;;;5.83;1.10;;;22.40;35.60;;;;;;5032189;28;20521;-60
2021/09/30 14:47:23;;;;;;;4.10;0.93;;;22.40;34.60;;;;;;5045511;28;20179;-61
2021/09/30 14:49:49;;;;;;;4.80;1.10;;;22.30;33.40;;;;;;5050207;28;20493;-61
2021/09/30 14:52:15;;;;;;;4.83;0.97;;;22.20;33.60;;;;;;5050598;28;20398;-60
2021/09/30 14:54:41;;;;;;;2.60;0.93;;;22.20;34.00;;;;;;5052155;28;20275;-60
2021/09/30 14:57:07;;;;;;;3.30;1.30;;;22.20;35.20;;;;;;5048005;28;20429;-60
2021/09/30 14:59:33;;;;;;;1.83;1.00;;;22.30;35.30;;;;;;5048149;28;20171;-60
2021/09/30 15:01:58;;;;;;;2.10;1.20;;;22.30;35.30;;;;;;5049698;28;20175;-60
2021/09/30 15:04:24;;;;;;;2.63;0.90;;;22.40;36.50;;;;;;5048685;28;20194;-60
2021/09/30 15:06:50;;;;;;;1.73;1.10;;;22.40;36.90;;;;;;5055544;28;20256;-60
2021/09/30 15:09:16;;;;;;;0.87;0.80;;;22.40;36.90;;;;;;5051611;28;20187;-60
2021/09/30 15:11:42;;;;;;;1.43;1.00;;;22.40;36.50;;;;;;5048215;28;20475;-61
2021/09/30 15:14:08;;;;;;;3.43;1.10;;;22.40;36.60;;;;;;5049793;28;20206;-61
2021/09/30 15:16:37;;;;;;;1.47;1.10;;;22.10;36.00;;;;;;5049415;28;20175;-61
2021/09/30 15:19:09;;;;;;;6.30;1.20;;;21.40;35.50;;;;;;5050570;28;20424;-60
2021/09/30 15:21:35;;;;;;;4.07;1.00;;;20.50;35.70;;;;;;5059781;28;20964;-60
2021/09/30 15:24:05;;;;;;;2.93;1.10;;;19.70;37.10;;;;;;5053382;28;20452;-60
2021/09/30 15:26:33;;;;;;;3.83;1.20;;;18.90;38.50;;;;;;5049248;28;20809;-60
2021/09/30 15:28:59;;;;;;;3.63;1.17;;;18.30;39.10;;;;;;5043575;28;20457;-60
2021/09/30 15:31:27;;;;;;;1.73;1.20;;;17.80;40.30;;;;;;5044845;28;20457;-60
2021/09/30 15:33:54;;;;;;;3.70;1.23;;;17.30;40.90;;;;;;5049702;28;20468;-60
2021/09/30 15:36:25;;;;;;;2.47;1.10;;;17.00;42.00;;;;;;5025549;28;20414;-59
2021/09/30 15:38:54;;;;;;;3.80;1.20;;;16.80;43.30;;;;;;5045429;28;20469;-60
2021/09/30 15:41:20;;;;;;;2.83;1.40;;;16.60;43.20;;;;;;5050970;28;20973;-60
2021/09/30 15:43:46;;;;;;;1.97;1.10;;;16.30;44.90;;;;;;5050011;28;20544;-61
2021/09/30 15:46:11;;;;;;;3.17;1.40;;;16.20;44.70;;;;;;5050332;28;20422;-61
2021/09/30 15:48:37;;;;;;;1.70;1.53;;;16.00;45.10;;;;;;5049910;28;20534;-60
2021/09/30 15:51:05;;;;;;;3.97;1.20;;;15.90;46.30;;;;;;5049865;28;20171;-61
2021/09/30 15:53:31;;;;;;;3.50;1.37;;;15.80;47.10;;;;;;5050286;28;20206;-60
2021/09/30 15:55:56;;;;;;;2.93;1.40;;;15.60;46.90;;;;;;5051100;28;20434;-61
2021/09/30 15:58:22;;;;;;;2.60;1.50;;;15.50;47.10;;;;;;5043874;28;20197;-60
2021/09/30 16:00:48;;;;;;;2.27;1.20;;;15.40;46.30;;;;;;5046246;28;20606;-60
2021/09/30 16:03:14;;;;;;;2.30;1.20;;;15.30;46.40;;;;;;5043614;28;21034;-59
2021/09/30 16:05:40;;;;;;;4.23;1.50;;;15.20;47.00;;;;;;5048010;28;20183;-60
2021/09/30 16:08:06;;;;;;;2.43;1.40;;;15.20;47.80;;;;;;5048625;28;20202;-59
2021/09/30 16:10:32;;;;;;;5.43;1.47;;;15.10;48.20;;;;;;5039283;28;20430;-59
2021/09/30 16:12:58;;;;;;;1.33;1.23;;;15.00;48.20;;;;;;5044945;28;20235;-60
2021/09/30 16:15:24;;;;;;;1.43;1.30;;;15.00;48.30;;;;;;5041368;28;20510;-58
2021/09/30 16:17:50;;;;;;;3.97;1.60;;;14.90;48.80;;;;;;5044850;28;20429;-58
2021/09/30 16:20:16;;;;;;;1.77;1.67;;;14.80;49.60;;;;;;5041952;28;20256;-58
2021/09/30 16:22:42;;;;;;;3.60;1.73;;;14.80;48.80;;;;;;5039847;28;20215;-59
2021/09/30 16:25:08;;;;;;;2.97;1.93;;;14.70;48.80;;;;;;5011796;28;20633;-58
2021/09/30 16:27:36;;;;;;;3.57;1.97;;;14.70;48.70;;;;;;5038280;28;20686;-58
2021/09/30 16:30:05;;;;;;;2.20;2.00;;;14.60;49.60;;;;;;5040922;28;20485;-59
2021/09/30 16:32:31;;;;;;;4.23;2.20;;;14.50;49.50;;;;;;5044732;28;20433;-60
2021/09/30 16:34:57;;;;;;;3.57;2.10;;;14.40;49.80;;;;;;5036242;28;20429;-60
2021/09/30 16:37:23;;;;;;;2.97;1.60;;;14.40;49.90;;;;;;5042675;28;20429;-60
2021/09/30 16:39:49;;;;;;;2.10;1.60;;;14.30;49.40;;;;;;5039493;28;20278;-60
2021/09/30 16:42:15;;;;;;;2.40;1.63;;;14.20;49.50;;;;;;5047470;28;20257;-60
2021/09/30 16:44:40;;;;;;;5.30;2.50;;;14.20;49.80;;;;;;5047773;28;20202;-60
2021/09/30 16:47:06;;;;;;;9.80;5.27;;;14.10;50.00;;;;;;5023022;28;20429;-60
2021/09/30 16:49:32;;;;;;;7.23;4.00;;;14.00;49.80;;;;;;5057844;28;20204;-60
2021/09/30 16:51:58;;;;;;;5.43;3.80;;;14.00;50.10;;;;;;5046977;28;20176;-60
2021/09/30 16:54:24;;;;;;;7.60;3.50;;;14.00;50.80;;;;;;5048363;28;20691;-60
2021/09/30 16:56:50;;;;;;;7.03;3.40;;;13.90;51.50;;;;;;5048084;28;20190;-60
2021/09/30 16:59:16;;;;;;;4.10;2.70;;;13.80;52.20;;;;;;5032661;28;20421;-61
2021/09/30 17:01:43;;;;;;;5.30;2.87;;;13.70;53.10;;;;;;5041378;28;20790;-60
2021/09/30 17:04:10;;;;;;;4.10;2.47;;;13.60;53.50;;;;;;5047158;28;20223;-61
2021/09/30 17:06:36;;;;;;;8.27;3.83;;;13.40;54.20;;;;;;5048222;28;20432;-59
2021/09/30 17:09:02;;;;;;;8.70;2.57;;;13.20;55.40;;;;;;5045884;28;20461;-59
2021/09/30 17:11:29;;;;;;;6.10;3.10;;;13.10;55.50;;;;;;5047198;28;20430;-60
2021/09/30 17:13:55;;;;;;;13.90;3.40;;;12.90;56.00;;;;;;5042104;28;20461;-59
2021/09/30 17:16:21;;;;;;;10.30;7.03;;;12.80;57.10;;;;;;5037910;28;20473;-60
2021/09/30 17:18:47;;;;;;;9.73;6.97;;;12.60;57.50;;;;;;5034394;28;20472;-60